createdAt,value
2022-11-22T00:00:25.897Z,4.93
2022-11-22T00:02:52.791Z,4.80
2022-11-22T00:05:20.020Z,4.20
2022-11-22T00:07:47.128Z,4.18
2022-11-22T00:10:14.736Z,5.82
2022-11-22T00:12:42.176Z,4.90
2022-11-22T00:15:09.809Z,4.28
2022-11-22T00:17:36.794Z,5.05
2022-11-22T00:20:04.921Z,3.97
2022-11-22T00:22:32.793Z,6.32
2022-11-22T00:24:59.751Z,4.18
2022-11-22T00:27:29.196Z,4.60
2022-11-22T00:29:55.994Z,4.15
2022-11-22T00:32:23.057Z,3.90
2022-11-22T00:34:49.710Z,4.43
2022-11-22T00:37:16.429Z,2.95
2022-11-22T00:39:43.034Z,3.40
2022-11-22T00:42:09.709Z,6.82
2022-11-22T00:44:36.768Z,4.13
2022-11-22T00:47:03.766Z,5.10
2022-11-22T00:49:30.809Z,5.05
2022-11-22T00:51:57.770Z,4.00
2022-11-22T00:54:24.576Z,4.00
2022-11-22T00:56:51.236Z,3.88
2022-11-22T00:59:17.832Z,5.05
2022-11-22T01:01:44.719Z,3.60
2022-11-22T01:04:11.423Z,4.88
2022-11-22T01:06:38.224Z,3.90
2022-11-22T01:09:05.066Z,3.65
2022-11-22T01:11:31.888Z,5.05
2022-11-22T01:13:58.577Z,4.93
2022-11-22T01:16:25.631Z,5.72
2022-11-22T01:18:52.313Z,5.05
2022-11-22T01:21:18.968Z,5.30
2022-11-22T01:23:45.647Z,4.97
2022-11-22T01:26:12.859Z,4.43
2022-11-22T01:28:39.618Z,3.58
2022-11-22T01:31:06.673Z,3.42
2022-11-22T01:33:33.444Z,2.17
2022-11-22T01:36:00.180Z,2.08
2022-11-22T01:38:26.978Z,4.07
2022-11-22T01:40:54.757Z,3.13
2022-11-22T01:43:27.089Z,3.65
2022-11-22T01:48:24.477Z,2.55
2022-11-22T01:50:59.506Z,4.03
2022-11-22T01:53:31.945Z,3.53
2022-11-22T01:56:01.165Z,4.97
2022-11-22T01:58:30.799Z,5.15
2022-11-22T02:00:58.280Z,5.07
2022-11-22T02:03:27.432Z,6.50
2022-11-22T02:05:55.269Z,4.85
2022-11-22T02:09:02.904Z,5.88
2022-11-22T02:11:34.060Z,6.13
2022-11-22T02:14:02.228Z,6.07
2022-11-22T02:16:28.969Z,4.97
2022-11-22T02:18:55.618Z,7.13
2022-11-22T02:21:22.297Z,6.90
2022-11-22T02:23:54.965Z,7.88
2022-11-22T02:26:24.176Z,7.55
2022-11-22T02:28:52.547Z,7.18
2022-11-22T02:31:47.129Z,7.65
2022-11-22T02:34:14.537Z,6.43
2022-11-22T02:36:50.214Z,5.97
2022-11-22T02:39:20.592Z,6.13
2022-11-22T02:41:51.556Z,4.40
2022-11-22T02:44:20.667Z,5.53
2022-11-22T02:46:50.121Z,5.05
2022-11-22T02:49:19.209Z,5.45
2022-11-22T02:51:46.678Z,7.00
2022-11-22T02:54:14.130Z,6.70
2022-11-22T02:56:41.138Z,5.20
2022-11-22T02:59:07.962Z,5.80
2022-11-22T03:01:35.098Z,5.07
2022-11-22T03:04:01.898Z,6.18
2022-11-22T03:06:28.545Z,5.13
2022-11-22T03:08:56.778Z,7.95
2022-11-22T03:11:24.912Z,6.25
2022-11-22T03:13:51.953Z,6.85
2022-11-22T03:16:18.714Z,7.13
2022-11-22T03:18:45.642Z,7.45
2022-11-22T03:21:12.661Z,6.68
2022-11-22T03:23:39.505Z,6.93
2022-11-22T03:26:11.181Z,9.23
2022-11-22T03:28:38.352Z,7.00
2022-11-22T03:31:06.557Z,9.20
2022-11-22T03:33:34.851Z,12.65
2022-11-22T03:36:01.650Z,12.15
2022-11-22T03:38:28.830Z,13.98
2022-11-22T03:40:55.466Z,29.00
2022-11-22T03:43:22.479Z,25.02
2022-11-22T03:45:49.352Z,24.90
2022-11-22T03:48:15.960Z,29.35
2022-11-22T03:50:42.639Z,25.77
2022-11-22T03:53:10.104Z,28.58
2022-11-22T03:55:36.851Z,24.52
2022-11-22T03:58:04.106Z,18.40
2022-11-22T04:00:31.831Z,24.75
2022-11-22T04:02:58.658Z,26.45
2022-11-22T04:05:25.700Z,23.33
2022-11-22T04:07:58.293Z,17.90
2022-11-22T04:10:26.320Z,21.55
2022-11-22T04:12:58.436Z,25.05
2022-11-22T04:15:26.431Z,24.65
2022-11-22T04:17:53.312Z,16.83
2022-11-22T04:20:43.619Z,23.10
2022-11-22T04:23:14.491Z,18.63
2022-11-22T04:25:44.419Z,16.70
2022-11-22T04:28:12.174Z,20.85
2022-11-22T04:30:57.926Z,24.70
2022-11-22T04:33:25.026Z,23.75
2022-11-22T04:35:52.818Z,25.48
2022-11-22T04:38:19.949Z,27.67
2022-11-22T04:40:47.289Z,22.08
2022-11-22T04:43:50.813Z,21.08
2022-11-22T04:46:17.641Z,33.08
2022-11-22T04:48:44.240Z,34.30
2022-11-22T04:51:33.292Z,31.20
2022-11-22T04:54:00.359Z,38.13
2022-11-22T04:56:27.428Z,36.00
2022-11-22T04:58:54.833Z,38.08
2022-11-22T05:01:21.881Z,48.78
2022-11-22T05:03:48.990Z,37.40
2022-11-22T05:06:16.666Z,43.65
2022-11-22T05:08:43.593Z,52.53
2022-11-22T05:11:10.537Z,45.35
2022-11-22T05:13:40.434Z,33.85
2022-11-22T05:16:09.707Z,32.22
2022-11-22T05:18:36.651Z,43.65
2022-11-22T05:21:11.004Z,29.45
2022-11-22T05:23:55.882Z,38.08
2022-11-22T05:26:29.965Z,26.33
2022-11-22T05:29:00.376Z,27.05
2022-11-22T05:31:27.616Z,33.88
2022-11-22T05:33:56.469Z,20.73
2022-11-22T05:36:24.303Z,18.17
2022-11-22T05:38:51.445Z,21.05
2022-11-22T05:41:18.606Z,18.73
2022-11-22T05:43:45.546Z,25.30
2022-11-22T05:46:24.675Z,23.38
2022-11-22T05:48:52.909Z,25.00
2022-11-22T05:51:22.590Z,15.52
2022-11-22T05:53:49.322Z,18.13
2022-11-22T05:56:19.503Z,17.77
2022-11-22T05:58:46.615Z,11.48
2022-11-22T06:01:18.949Z,13.00
2022-11-22T06:06:13.199Z,13.80
2022-11-22T06:08:41.726Z,18.70
2022-11-22T06:11:14.751Z,15.95
2022-11-22T06:13:44.117Z,16.33
2022-11-22T06:16:11.697Z,25.20
2022-11-22T06:18:38.898Z,19.65
2022-11-22T06:21:11.606Z,13.20
2022-11-22T06:23:38.472Z,12.60
2022-11-22T06:26:07.784Z,14.57
2022-11-22T06:28:36.482Z,12.23
2022-11-22T06:31:13.077Z,8.68
2022-11-22T06:33:40.886Z,18.52
2022-11-22T06:36:13.463Z,9.68
2022-11-22T06:38:42.022Z,13.57
2022-11-22T06:41:10.923Z,9.73
2022-11-22T06:43:43.792Z,8.82
2022-11-22T06:46:16.485Z,9.80
2022-11-22T06:48:44.039Z,9.90
2022-11-22T06:51:36.921Z,13.30
2022-11-22T06:54:03.679Z,9.98
2022-11-22T06:56:32.749Z,8.15
2022-11-22T06:59:04.049Z,9.20
2022-11-22T07:01:32.309Z,10.27
2022-11-22T07:04:00.126Z,11.82
2022-11-22T07:06:30.242Z,12.85
2022-11-22T07:08:57.295Z,11.90
2022-11-22T07:11:27.093Z,6.93
2022-11-22T07:13:55.661Z,8.10
2022-11-22T07:16:23.235Z,11.23
2022-11-22T07:18:51.690Z,9.77
2022-11-22T07:21:21.657Z,8.80
2022-11-22T07:23:50.730Z,9.75
2022-11-22T07:26:19.278Z,18.45
2022-11-22T07:28:46.333Z,17.40
2022-11-22T07:31:14.701Z,16.58
2022-11-22T07:33:42.660Z,25.45
2022-11-22T07:36:12.174Z,17.25
2022-11-22T07:38:39.315Z,19.85
2022-11-22T07:41:07.599Z,22.38
2022-11-22T07:43:35.213Z,19.23
2022-11-22T07:46:03.858Z,19.50
2022-11-22T07:48:30.892Z,21.77
2022-11-22T07:51:02.980Z,26.75
2022-11-22T07:53:30.110Z,24.60
2022-11-22T07:55:57.995Z,28.15
2022-11-22T07:58:24.867Z,25.30
2022-11-22T08:00:51.737Z,27.27
2022-11-22T08:03:21.567Z,29.40
2022-11-22T08:08:17.382Z,26.70
2022-11-22T08:10:44.892Z,25.42
2022-11-22T08:13:11.920Z,30.77
2022-11-22T08:15:38.733Z,26.23
2022-11-22T08:18:05.617Z,29.48
2022-11-22T08:20:32.609Z,29.67
2022-11-22T08:22:59.343Z,30.77
2022-11-22T08:25:25.963Z,19.73
2022-11-22T08:27:52.574Z,23.98
2022-11-22T08:30:19.244Z,24.85
2022-11-22T08:32:45.960Z,26.48
2022-11-22T08:35:12.702Z,26.95
2022-11-22T08:37:39.425Z,32.20
2022-11-22T08:40:06.922Z,25.02
2022-11-22T08:42:33.604Z,31.95
2022-11-22T08:45:00.338Z,27.98
2022-11-22T08:47:26.987Z,28.85
2022-11-22T08:49:53.850Z,24.52
2022-11-22T08:52:20.714Z,24.50
2022-11-22T08:54:47.373Z,25.10
2022-11-22T08:57:14.386Z,27.40
2022-11-22T08:59:41.243Z,29.10
2022-11-22T09:02:09.533Z,31.50
2022-11-22T09:04:36.181Z,28.42
2022-11-22T09:09:49.776Z,22.73
2022-11-22T09:12:16.653Z,21.52
2022-11-22T09:14:43.231Z,22.15
2022-11-22T09:17:14.592Z,23.85
2022-11-22T09:19:44.224Z,31.05
2022-11-22T09:22:10.939Z,20.77
2022-11-22T09:24:37.554Z,23.02
2022-11-22T09:27:04.417Z,23.25
2022-11-22T09:29:31.381Z,25.92
2022-11-22T09:31:58.479Z,31.15
2022-11-22T09:34:25.223Z,28.05
2022-11-22T09:36:51.812Z,25.58
2022-11-22T09:39:18.814Z,27.15
2022-11-22T09:41:54.636Z,26.15
2022-11-22T09:44:36.401Z,26.17
2022-11-22T09:47:21.697Z,25.73
2022-11-22T09:50:12.791Z,20.20
2022-11-22T09:52:55.665Z,24.75
2022-11-22T09:55:45.664Z,26.10
2022-11-22T09:58:38.197Z,22.73
2022-11-22T10:01:23.279Z,23.85
2022-11-22T10:04:01.310Z,17.55
2022-11-22T10:06:34.210Z,17.60
2022-11-22T10:09:19.640Z,18.48
2022-11-22T10:12:17.534Z,19.45
2022-11-22T10:15:05.495Z,27.38
2022-11-22T10:17:55.409Z,22.50
2022-11-22T10:20:30.483Z,17.00
2022-11-22T10:22:58.977Z,21.40
2022-11-22T10:25:43.839Z,14.57
2022-11-22T10:28:19.429Z,16.58
2022-11-22T10:30:58.569Z,16.75
2022-11-22T10:33:34.276Z,22.48
2022-11-22T10:36:37.335Z,19.05
2022-11-22T10:39:30.102Z,17.83
2022-11-22T10:42:20.460Z,20.48
2022-11-22T10:45:07.441Z,20.85
2022-11-22T10:47:56.615Z,16.17
2022-11-22T10:50:30.891Z,18.10
2022-11-22T10:52:57.680Z,17.92
2022-11-22T10:55:42.874Z,18.95
2022-11-22T10:58:46.157Z,15.73
2022-11-22T11:01:45.446Z,16.85
2022-11-22T11:04:17.072Z,28.10
2022-11-22T11:12:32.505Z,20.40
2022-11-22T11:15:05.414Z,15.82
2022-11-22T11:17:37.017Z,15.80
2022-11-22T11:20:14.131Z,11.48
2022-11-22T11:25:33.982Z,20.52
2022-11-22T11:28:08.921Z,23.77
2022-11-22T11:30:42.900Z,19.77
2022-11-22T11:33:34.956Z,15.75
2022-11-22T11:36:06.819Z,23.25
2022-11-22T11:38:36.576Z,20.00
2022-11-22T11:41:20.268Z,17.67
2022-11-22T11:43:47.723Z,20.95
2022-11-22T11:46:28.870Z,18.80
2022-11-22T11:49:08.550Z,13.82
2022-11-22T11:51:41.098Z,15.85
2022-11-22T11:54:34.193Z,23.70
2022-11-22T11:57:05.257Z,24.92
2022-11-22T11:59:47.586Z,18.90
2022-11-22T12:02:29.451Z,17.80
2022-11-22T12:05:04.792Z,21.45
2022-11-22T12:07:34.628Z,19.98
2022-11-22T12:10:04.121Z,22.60
2022-11-22T12:12:36.473Z,16.77
2022-11-22T12:17:52.816Z,18.10
2022-11-22T12:20:26.379Z,23.90
2022-11-22T12:23:06.144Z,32.92
2022-11-22T12:25:37.929Z,21.88
2022-11-22T12:28:22.853Z,20.83
2022-11-22T12:31:18.857Z,18.40
2022-11-22T12:34:13.494Z,21.13
2022-11-22T12:37:05.867Z,22.77
2022-11-22T12:39:36.282Z,21.20
2022-11-22T12:42:07.809Z,26.55
2022-11-22T12:44:39.844Z,33.92
2022-11-22T12:47:13.065Z,36.85
2022-11-22T12:49:59.906Z,33.53
2022-11-22T12:52:34.905Z,34.30
2022-11-22T12:55:17.961Z,21.63
2022-11-22T12:58:17.121Z,26.45
2022-11-22T13:01:03.486Z,28.65
2022-11-22T13:03:53.446Z,45.15
2022-11-22T13:06:28.267Z,65.03
2022-11-22T13:09:05.825Z,54.67
2022-11-22T13:11:39.897Z,43.10
2022-11-22T13:14:21.385Z,36.22
2022-11-22T13:16:51.161Z,35.17
2022-11-22T13:19:22.851Z,35.90
2022-11-22T13:22:08.830Z,36.58
2022-11-22T13:24:54.336Z,35.03
2022-11-22T13:27:28.066Z,36.10
2022-11-22T13:29:58.284Z,43.10
2022-11-22T13:32:31.419Z,39.15
2022-11-22T13:35:13.103Z,35.08
2022-11-22T13:37:49.545Z,36.83
2022-11-22T13:40:16.081Z,35.85
2022-11-22T13:42:43.159Z,35.90
2022-11-22T13:45:21.728Z,41.10
2022-11-22T13:47:48.765Z,36.40
2022-11-22T13:50:37.233Z,39.88
2022-11-22T13:53:19.122Z,34.38
2022-11-22T13:55:46.932Z,33.03
2022-11-22T13:58:25.794Z,32.72
2022-11-22T14:00:54.562Z,33.00
2022-11-22T14:03:42.899Z,39.10
2022-11-22T14:06:35.981Z,37.08
2022-11-22T14:09:28.650Z,38.70
2022-11-22T14:14:37.672Z,38.72
2022-11-22T14:17:25.641Z,43.28
2022-11-22T14:20:11.233Z,37.17
2022-11-22T14:23:06.251Z,42.17
2022-11-22T14:25:44.923Z,38.38
2022-11-22T14:28:49.992Z,46.05
2022-11-22T14:31:29.934Z,35.83
2022-11-22T14:34:18.495Z,32.30
2022-11-22T14:37:06.771Z,36.40
2022-11-22T14:39:45.849Z,35.10
2022-11-22T14:42:41.820Z,37.28
2022-11-22T14:45:11.318Z,42.78
2022-11-22T14:47:52.989Z,40.00
2022-11-22T14:50:32.799Z,44.58
2022-11-22T14:53:45.853Z,43.35
2022-11-22T14:58:58.551Z,52.40
2022-11-22T15:01:39.049Z,54.75
2022-11-22T15:09:19.925Z,47.63
2022-11-22T15:09:20.684Z,47.85
2022-11-22T15:11:17.293Z,59.72
2022-11-22T15:14:15.864Z,61.42
2022-11-22T15:59:45.472Z,54.22
2022-11-22T16:02:22.833Z,50.72
2022-11-22T16:06:03.625Z,48.15
2022-11-22T16:07:45.834Z,50.55
2022-11-22T16:10:37.747Z,43.33
2022-11-22T16:13:20.813Z,52.97
2022-11-22T16:16:12.659Z,53.92
2022-11-22T16:18:41.146Z,58.00
2022-11-22T16:21:11.518Z,59.22
2022-11-22T16:23:39.769Z,58.72
2022-11-22T16:26:18.242Z,60.40
2022-11-22T16:28:50.985Z,62.53
2022-11-22T16:31:26.852Z,58.33
2022-11-22T16:33:54.775Z,59.55
2022-11-22T16:36:23.502Z,61.40
2022-11-22T16:38:50.495Z,59.65
2022-11-22T16:41:22.598Z,56.30
2022-11-22T16:43:52.987Z,55.40
2022-11-22T16:46:20.585Z,63.50
2022-11-22T16:48:48.151Z,54.92
2022-11-22T16:51:28.524Z,59.85
2022-11-22T16:53:58.922Z,59.95
2022-11-22T16:56:28.493Z,54.38
2022-11-22T16:58:56.994Z,59.15
2022-11-22T17:01:26.701Z,65.30
2022-11-22T17:03:56.228Z,61.03
2022-11-22T17:06:25.972Z,61.42
2022-11-22T17:08:55.472Z,67.13
2022-11-22T17:11:31.694Z,57.17
2022-11-22T17:13:59.377Z,54.38
2022-11-22T17:16:26.179Z,50.33
2022-11-22T17:18:53.509Z,47.00
2022-11-22T17:21:31.329Z,52.78
2022-11-22T17:24:04.019Z,50.53
2022-11-22T17:26:32.618Z,55.72
2022-11-22T17:28:59.396Z,51.67
2022-11-22T17:31:28.702Z,50.40
2022-11-22T17:33:58.021Z,50.78
2022-11-22T17:36:30.303Z,50.25
2022-11-22T17:41:24.730Z,54.92
2022-11-22T17:43:52.182Z,72.43
2022-11-22T17:46:20.034Z,70.47
2022-11-22T17:48:55.165Z,63.25
2022-11-22T17:51:22.491Z,52.40
2022-11-22T17:53:49.614Z,46.75
2022-11-22T17:56:16.644Z,29.63
2022-11-22T17:58:43.741Z,35.10
2022-11-22T18:01:13.331Z,28.75
2022-11-22T18:03:40.912Z,31.08
2022-11-22T18:06:08.881Z,28.27
2022-11-22T18:08:36.081Z,31.67
2022-11-22T18:11:04.512Z,32.47
2022-11-22T18:13:34.157Z,37.65
2022-11-22T18:16:03.779Z,59.92
2022-11-22T18:21:19.410Z,38.95
2022-11-22T18:23:46.086Z,44.13
2022-11-22T18:29:35.657Z,58.42
2022-11-22T18:31:52.051Z,43.72
2022-11-22T18:34:19.684Z,52.80
2022-11-22T18:37:03.887Z,55.22
2022-11-22T18:39:36.522Z,57.65
2022-11-22T18:42:05.292Z,96.30
2022-11-22T18:44:32.530Z,49.00
2022-11-22T18:46:59.332Z,62.55
2022-11-22T18:49:26.347Z,100.45
2022-11-22T18:51:53.519Z,56.38
2022-11-22T18:54:21.915Z,48.65
2022-11-22T18:56:49.456Z,35.70
2022-11-22T18:59:16.465Z,46.92
2022-11-22T19:01:43.455Z,87.93
2022-11-22T19:04:16.497Z,59.50
2022-11-22T19:06:44.127Z,78.40
2022-11-22T19:09:11.619Z,64.40
2022-11-22T19:11:38.544Z,45.83
2022-11-22T19:14:06.078Z,41.53
2022-11-22T19:16:33.656Z,50.85
2022-11-22T19:19:00.576Z,40.90
2022-11-22T19:21:31.944Z,39.10
2022-11-22T19:23:59.137Z,43.70
2022-11-22T19:26:28.432Z,50.97
2022-11-22T19:28:56.467Z,42.28
2022-11-22T19:31:29.495Z,48.92
2022-11-22T19:33:56.613Z,38.75
2022-11-22T19:36:32.324Z,34.58
2022-11-22T19:39:01.464Z,35.08
2022-11-22T19:41:28.685Z,34.42
2022-11-22T19:43:56.745Z,38.70
2022-11-22T19:46:38.894Z,35.95
2022-11-22T19:49:08.699Z,46.28
2022-11-22T19:51:36.569Z,39.95
2022-11-22T19:54:04.031Z,38.28
2022-11-22T19:56:36.643Z,41.67
2022-11-22T19:59:06.415Z,38.38
2022-11-22T20:01:35.799Z,34.28
2022-11-22T20:04:05.978Z,41.72
2022-11-22T20:06:34.574Z,42.72
2022-11-22T20:09:06.650Z,42.28
2022-11-22T20:11:33.611Z,39.67
2022-11-22T20:14:00.884Z,46.90
2022-11-22T20:16:30.578Z,64.75
2022-11-22T20:19:03.670Z,63.47
2022-11-22T20:21:32.327Z,82.75
2022-11-22T20:24:00.529Z,68.03
2022-11-22T20:26:28.093Z,80.03
2022-11-22T20:29:04.204Z,69.05
2022-11-22T20:31:33.152Z,55.65
2022-11-22T20:34:01.224Z,72.45
2022-11-22T20:36:30.178Z,63.90
2022-11-22T20:38:57.496Z,48.50
2022-11-22T20:41:29.954Z,39.60
2022-11-22T20:43:56.973Z,42.08
2022-11-22T20:46:27.291Z,44.00
2022-11-22T20:48:55.366Z,38.38
2022-11-22T20:51:31.070Z,49.10
2022-11-22T20:53:58.356Z,40.08
2022-11-22T20:56:25.580Z,47.30
2022-11-22T20:58:52.716Z,45.53
2022-11-22T21:01:28.605Z,46.47
2022-11-22T21:03:55.683Z,58.70
2022-11-22T21:06:23.876Z,53.50
2022-11-22T21:08:51.520Z,53.78
2022-11-22T21:11:23.637Z,58.00
2022-11-22T21:13:51.265Z,61.60
2022-11-22T21:16:24.399Z,46.88
2022-11-22T21:19:05.281Z,44.35
2022-11-22T21:21:35.127Z,44.45
2022-11-22T21:24:04.020Z,37.97
2022-11-22T21:26:31.437Z,42.00
2022-11-22T21:28:59.855Z,44.00
2022-11-22T21:31:27.559Z,47.45
2022-11-22T21:33:54.616Z,41.78
2022-11-22T21:36:22.817Z,38.92
2022-11-22T21:38:49.535Z,33.60
2022-11-22T21:44:06.584Z,39.00
2022-11-22T21:46:33.195Z,36.47
2022-11-22T21:48:59.932Z,38.08
2022-11-22T21:51:26.880Z,48.22
2022-11-22T21:54:01.363Z,46.45
2022-11-22T21:56:28.462Z,32.33
2022-11-22T21:58:55.153Z,40.03
2022-11-22T22:01:22.853Z,38.05
2022-11-22T22:03:49.898Z,38.72
2022-11-22T22:06:16.598Z,32.20
2022-11-22T22:08:43.409Z,40.22
2022-11-22T22:11:10.142Z,35.42
2022-11-22T22:13:36.757Z,38.75
2022-11-22T22:16:06.919Z,41.03
2022-11-22T22:18:35.749Z,34.95
2022-11-22T22:21:07.503Z,33.00
2022-11-22T22:23:35.781Z,36.20
2022-11-22T22:26:06.433Z,32.13
2022-11-22T22:28:35.232Z,33.13
2022-11-22T22:31:17.256Z,29.38
2022-11-22T22:33:45.578Z,28.85
2022-11-22T22:36:12.432Z,33.00
2022-11-22T22:38:39.820Z,29.55
2022-11-22T22:41:07.873Z,30.17
2022-11-22T22:43:36.663Z,35.72
2022-11-22T22:46:22.903Z,30.60
2022-11-22T22:48:51.270Z,34.85
2022-11-22T22:51:20.826Z,32.78
2022-11-22T22:53:47.874Z,32.47
2022-11-22T22:56:18.524Z,34.70
2022-11-22T22:58:45.378Z,34.80
2022-11-22T23:01:17.414Z,34.15
2022-11-22T23:03:50.508Z,33.92
2022-11-22T23:06:18.055Z,29.52
2022-11-22T23:08:47.428Z,32.97
2022-11-22T23:11:15.979Z,33.60
2022-11-22T23:13:43.160Z,30.80
2022-11-22T23:16:13.191Z,31.48
2022-11-22T23:18:42.379Z,29.73
2022-11-22T23:21:13.106Z,28.77
2022-11-22T23:23:39.708Z,35.13
2022-11-22T23:26:11.720Z,35.40
2022-11-22T23:28:38.598Z,33.83
2022-11-22T23:31:11.390Z,29.55
2022-11-22T23:33:38.454Z,29.95
2022-11-22T23:36:07.947Z,27.58
2022-11-22T23:38:35.699Z,26.85
2022-11-22T23:41:02.421Z,30.63
2022-11-22T23:43:29.947Z,29.35
2022-11-22T23:45:58.743Z,30.05
2022-11-22T23:48:27.020Z,33.95
2022-11-22T23:50:53.791Z,29.40
2022-11-22T23:53:20.725Z,26.40
2022-11-22T23:55:47.316Z,27.83
2022-11-22T23:58:13.936Z,30.02
